createdAt,value
2019-05-13T00:00:23.494Z,11.65
2019-05-13T00:02:54.386Z,12.90
2019-05-13T00:05:25.745Z,9.83
2019-05-13T00:07:56.019Z,12.07
2019-05-13T00:10:29.014Z,14.45
2019-05-13T00:13:00.026Z,5.92
2019-05-13T00:15:30.271Z,12.20
2019-05-13T00:18:00.626Z,9.50
2019-05-13T00:20:30.796Z,13.60
2019-05-13T00:23:01.048Z,13.40
2019-05-13T00:25:33.616Z,12.55
2019-05-13T00:28:04.126Z,8.98
2019-05-13T00:30:35.380Z,9.03
2019-05-13T00:33:05.755Z,12.73
2019-05-13T00:35:35.942Z,11.90
2019-05-13T00:38:06.194Z,17.80
2019-05-13T00:40:38.862Z,10.63
2019-05-13T00:43:08.970Z,14.58
2019-05-13T00:45:39.180Z,10.15
2019-05-13T00:48:09.314Z,12.50
2019-05-13T00:50:39.458Z,12.05
2019-05-13T00:53:09.604Z,10.25
2019-05-13T00:55:39.872Z,8.10
2019-05-13T00:58:13.886Z,12.63
2019-05-13T01:00:44.579Z,11.10
2019-05-13T01:03:14.975Z,9.05
2019-05-13T01:05:45.095Z,8.73
2019-05-13T01:08:15.252Z,12.70
2019-05-13T01:10:45.433Z,12.00
2019-05-13T01:13:15.705Z,14.87
2019-05-13T01:15:45.855Z,13.48
2019-05-13T01:18:16.167Z,14.03
2019-05-13T01:20:46.409Z,6.42
2019-05-13T01:23:16.587Z,14.10
2019-05-13T01:25:46.743Z,9.68
2019-05-13T01:28:16.905Z,14.43
2019-05-13T01:30:47.038Z,7.40
2019-05-13T01:33:19.433Z,11.50
2019-05-13T01:35:49.621Z,13.43
2019-05-13T01:38:23.897Z,8.38
2019-05-13T01:40:54.125Z,8.15
2019-05-13T01:43:27.802Z,15.68
2019-05-13T01:45:57.977Z,8.30
2019-05-13T01:48:28.145Z,15.60
2019-05-13T01:50:58.384Z,11.97
2019-05-13T01:53:28.472Z,8.95
2019-05-13T01:55:58.664Z,15.18
2019-05-13T01:58:28.864Z,15.32
2019-05-13T02:00:59.004Z,10.10
2019-05-13T02:03:29.124Z,13.25
2019-05-13T02:05:59.334Z,10.40
2019-05-13T02:08:29.517Z,10.68
2019-05-13T02:10:59.756Z,17.85
2019-05-13T02:13:29.903Z,14.53
2019-05-13T02:16:00.100Z,13.00
2019-05-13T02:18:30.237Z,17.77
2019-05-13T02:21:00.469Z,17.87
2019-05-13T02:23:30.684Z,15.98
2019-05-13T02:26:00.892Z,19.57
2019-05-13T02:28:33.237Z,12.68
2019-05-13T02:31:02.899Z,15.53
2019-05-13T02:33:33.885Z,10.30
2019-05-13T02:36:05.430Z,12.18
2019-05-13T02:38:35.989Z,12.15
2019-05-13T02:41:06.529Z,10.45
2019-05-13T02:43:45.356Z,12.80
2019-05-13T02:46:15.390Z,21.93
2019-05-13T02:48:47.255Z,10.50
2019-05-13T02:51:22.769Z,13.20
2019-05-13T02:53:52.200Z,20.10
2019-05-13T02:56:22.703Z,12.37
2019-05-13T02:58:58.311Z,18.75
2019-05-13T03:01:28.465Z,16.45
2019-05-13T03:04:02.930Z,9.48
2019-05-13T03:06:35.599Z,10.58
2019-05-13T03:09:07.644Z,13.88
2019-05-13T03:11:42.344Z,16.40
2019-05-13T03:14:13.113Z,14.80
2019-05-13T03:16:52.391Z,12.43
2019-05-13T03:19:22.384Z,9.03
2019-05-13T03:21:53.899Z,13.85
2019-05-13T03:24:24.145Z,15.63
2019-05-13T03:26:56.619Z,10.68
2019-05-13T03:29:26.782Z,19.15
2019-05-13T03:31:57.107Z,24.50
2019-05-13T03:34:27.783Z,9.48
2019-05-13T03:36:58.608Z,17.35
2019-05-13T03:39:33.090Z,16.65
2019-05-13T03:42:03.876Z,21.42
2019-05-13T03:44:35.215Z,14.95
2019-05-13T03:47:05.415Z,17.70
2019-05-13T03:49:38.257Z,10.88
2019-05-13T03:52:13.546Z,14.90
2019-05-13T03:54:43.713Z,17.20
2019-05-13T03:57:18.542Z,11.28
2019-05-13T03:59:52.746Z,15.48
2019-05-13T04:02:22.958Z,12.15
2019-05-13T04:05:02.850Z,16.17
2019-05-13T04:07:28.382Z,14.53
2019-05-13T04:09:58.629Z,11.60
2019-05-13T04:12:28.832Z,11.20
2019-05-13T04:15:03.611Z,15.63
2019-05-13T04:17:33.091Z,19.57
2019-05-13T04:20:03.399Z,20.12
2019-05-13T04:22:34.041Z,10.80
2019-05-13T04:25:04.842Z,15.20
2019-05-13T04:27:38.132Z,18.05
2019-05-13T04:30:13.371Z,15.32
2019-05-13T04:32:44.184Z,8.98
2019-05-13T04:35:15.050Z,17.65
2019-05-13T04:37:48.406Z,15.13
2019-05-13T04:40:18.525Z,12.45
2019-05-13T04:42:48.709Z,10.93
2019-05-13T04:45:24.210Z,20.10
2019-05-13T04:47:59.112Z,10.50
2019-05-13T04:50:32.685Z,14.28
2019-05-13T04:53:03.287Z,13.25
2019-05-13T04:55:35.789Z,12.50
2019-05-13T04:58:06.339Z,13.48
2019-05-13T05:01:15.022Z,15.15
2019-05-13T05:03:53.102Z,20.45
2019-05-13T05:06:44.968Z,15.90
2019-05-13T05:10:11.636Z,14.70
2019-05-13T05:12:51.692Z,14.30
2019-05-13T05:16:09.490Z,14.23
2019-05-13T05:19:32.081Z,12.25
2019-05-13T05:22:22.163Z,11.12
2019-05-13T05:25:22.075Z,13.15
2019-05-13T05:28:37.616Z,16.42
2019-05-13T05:31:45.291Z,22.55
2019-05-13T05:34:32.070Z,16.23
2019-05-13T05:37:33.165Z,16.25
2019-05-13T05:40:04.766Z,15.18
2019-05-13T05:42:37.747Z,13.83
2019-05-13T05:45:08.675Z,14.60
2019-05-13T05:47:41.940Z,12.82
2019-05-13T05:50:12.734Z,12.68
2019-05-13T05:52:44.740Z,8.50
2019-05-13T05:55:15.033Z,15.43
2019-05-13T05:57:46.309Z,11.70
2019-05-13T06:00:18.038Z,8.83
2019-05-13T06:02:53.290Z,15.15
2019-05-13T06:05:24.506Z,11.68
2019-05-13T06:07:54.724Z,9.40
2019-05-13T06:10:24.888Z,18.50
2019-05-13T06:12:55.617Z,17.67
2019-05-13T06:15:25.970Z,11.45
2019-05-13T06:17:56.229Z,8.40
2019-05-13T06:20:26.427Z,12.88
2019-05-13T06:22:56.554Z,8.03
2019-05-13T06:25:26.725Z,10.93
2019-05-13T06:27:57.355Z,10.58
2019-05-13T06:30:28.552Z,8.98
2019-05-13T06:33:01.457Z,8.70
2019-05-13T06:35:32.336Z,9.43
2019-05-13T06:38:02.719Z,14.80
2019-05-13T06:40:32.924Z,13.60
2019-05-13T06:43:03.068Z,9.03
2019-05-13T06:45:33.209Z,9.58
2019-05-13T06:48:03.298Z,9.43
2019-05-13T06:50:33.461Z,19.70
2019-05-13T06:53:03.598Z,8.28
2019-05-13T06:55:33.769Z,12.10
2019-05-13T06:58:04.031Z,17.20
2019-05-13T07:00:42.526Z,14.93
2019-05-13T07:03:12.963Z,10.65
2019-05-13T07:05:43.364Z,13.40
2019-05-13T07:08:13.516Z,9.13
2019-05-13T07:10:43.717Z,31.02
2019-05-13T07:13:13.860Z,12.58
2019-05-13T07:15:43.975Z,9.73
2019-05-13T07:18:16.184Z,13.43
2019-05-13T07:20:45.959Z,7.97
2019-05-13T07:23:16.098Z,21.35
2019-05-13T07:25:46.236Z,5.75
2019-05-13T07:28:16.525Z,10.50
2019-05-13T07:30:46.876Z,10.20
2019-05-13T07:33:17.062Z,7.87
2019-05-13T07:35:48.455Z,8.35
2019-05-13T07:38:18.792Z,7.87
2019-05-13T07:40:52.592Z,7.65
2019-05-13T07:43:23.772Z,7.22
2019-05-13T07:45:53.956Z,9.98
2019-05-13T07:48:27.725Z,5.87
2019-05-13T07:51:00.148Z,7.28
2019-05-13T07:53:27.817Z,6.95
2019-05-13T07:56:01.756Z,7.35
2019-05-13T07:58:36.849Z,6.08
2019-05-13T08:01:03.007Z,10.82
2019-05-13T08:03:33.236Z,8.63
2019-05-13T08:06:03.461Z,12.43
2019-05-13T08:08:33.645Z,3.72
2019-05-13T08:11:03.864Z,6.53
2019-05-13T08:13:33.982Z,6.65
2019-05-13T08:16:04.267Z,7.22
2019-05-13T08:18:37.036Z,5.17
2019-05-13T08:21:07.200Z,7.87
2019-05-13T08:23:37.513Z,9.58
2019-05-13T08:26:07.766Z,5.35
2019-05-13T08:28:56.558Z,8.30
2019-05-13T08:31:12.035Z,6.25
2019-05-13T08:33:42.627Z,7.25
2019-05-13T08:36:12.772Z,6.47
2019-05-13T08:38:45.309Z,9.90
2019-05-13T08:41:19.367Z,3.30
2019-05-13T08:43:47.371Z,6.28
2019-05-13T08:46:17.609Z,5.45
2019-05-13T08:48:51.813Z,9.15
2019-05-13T08:51:22.200Z,2.80
2019-05-13T08:53:52.546Z,5.28
2019-05-13T08:56:23.684Z,3.05
2019-05-13T08:58:53.893Z,1.50
2019-05-13T09:01:24.033Z,9.73
2019-05-13T09:03:54.319Z,6.92
2019-05-13T09:06:24.539Z,4.42
2019-05-13T09:08:55.258Z,3.58
2019-05-13T09:11:25.490Z,5.53
2019-05-13T09:13:55.814Z,4.10
2019-05-13T09:16:26.018Z,4.28
2019-05-13T09:18:56.205Z,4.53
2019-05-13T09:21:26.430Z,1.30
2019-05-13T09:23:56.657Z,3.10
2019-05-13T09:26:26.863Z,1.20
2019-05-13T09:28:56.999Z,2.42
2019-05-13T09:31:27.122Z,5.87
2019-05-13T09:33:57.239Z,7.65
2019-05-13T09:36:27.485Z,3.90
2019-05-13T09:38:57.657Z,7.22
2019-05-13T09:41:27.899Z,4.55
2019-05-13T09:44:01.820Z,1.75
2019-05-13T09:46:31.952Z,4.65
2019-05-13T09:49:14.944Z,6.12
2019-05-13T09:51:34.097Z,7.03
2019-05-13T09:54:04.261Z,3.92
2019-05-13T09:56:34.425Z,4.28
2019-05-13T09:59:05.572Z,3.77
2019-05-13T10:01:37.618Z,5.28
2019-05-13T10:04:07.877Z,1.07
2019-05-13T10:06:38.388Z,5.03
2019-05-13T10:09:12.232Z,3.45
2019-05-13T10:11:43.036Z,2.77
2019-05-13T10:14:15.530Z,2.35
2019-05-13T10:16:46.216Z,4.87
2019-05-13T10:19:18.429Z,4.92
2019-05-13T10:21:49.090Z,2.55
2019-05-13T10:24:22.037Z,2.17
2019-05-13T10:26:51.901Z,0.55
2019-05-13T10:29:22.846Z,3.80
2019-05-13T10:31:53.581Z,0.90
2019-05-13T10:34:23.898Z,1.75
2019-05-13T10:36:55.339Z,1.42
2019-05-13T10:39:25.570Z,4.50
2019-05-13T10:41:56.975Z,1.85
2019-05-13T10:44:28.425Z,0.30
2019-05-13T10:46:58.607Z,2.08
2019-05-13T10:49:33.088Z,0.10
2019-05-13T10:52:04.159Z,1.75
2019-05-13T10:54:34.315Z,2.30
2019-05-13T10:57:06.794Z,2.80
2019-05-13T10:59:37.530Z,1.92
2019-05-13T11:02:07.728Z,4.80
2019-05-13T11:04:41.773Z,2.50
2019-05-13T11:07:15.890Z,0.95
2019-05-13T11:09:48.683Z,0.57
2019-05-13T11:12:28.602Z,1.40
2019-05-13T11:15:02.433Z,0.80
2019-05-13T11:17:33.229Z,1.60
2019-05-13T11:20:04.008Z,2.87
2019-05-13T11:22:34.256Z,1.47
2019-05-13T11:25:05.152Z,2.15
2019-05-13T11:27:41.882Z,0.85
2019-05-13T11:30:13.084Z,0.40
2019-05-13T11:32:45.220Z,2.10
2019-05-13T11:35:18.744Z,0.75
2019-05-13T11:37:52.167Z,0.65
2019-05-13T11:40:23.355Z,1.82
2019-05-13T11:42:55.218Z,0.57
2019-05-13T11:45:27.727Z,0.20
2019-05-13T11:47:58.553Z,0.37
2019-05-13T11:50:30.766Z,1.65
2019-05-13T11:53:03.516Z,0.30
2019-05-13T11:55:35.481Z,2.95
2019-05-13T11:58:14.075Z,2.58
2019-05-13T12:00:54.225Z,2.42
2019-05-13T12:03:24.908Z,1.20
2019-05-13T12:05:55.521Z,2.42
2019-05-13T12:08:25.688Z,2.75
2019-05-13T12:10:56.064Z,1.55
2019-05-13T12:13:29.784Z,0.57
2019-05-13T12:16:03.567Z,1.02
2019-05-13T12:18:45.914Z,0.55
2019-05-13T12:21:16.111Z,1.30
2019-05-13T12:23:46.213Z,2.92
2019-05-13T12:26:16.581Z,0.60
2019-05-13T12:28:46.739Z,1.42
2019-05-13T12:31:17.046Z,3.87
2019-05-13T12:33:47.197Z,0.62
2019-05-13T12:36:23.526Z,1.87
2019-05-13T12:38:53.797Z,3.00
2019-05-13T12:41:24.901Z,3.42
2019-05-13T12:43:57.251Z,4.28
2019-05-13T12:46:27.906Z,2.17
2019-05-13T12:48:58.966Z,0.72
2019-05-13T12:51:32.428Z,2.12
2019-05-13T12:54:03.771Z,2.60
2019-05-13T12:56:34.226Z,0.82
2019-05-13T12:59:05.243Z,1.47
2019-05-13T13:01:43.615Z,1.60
2019-05-13T13:04:14.266Z,1.25
2019-05-13T13:06:45.786Z,1.12
2019-05-13T13:09:16.451Z,1.12
2019-05-13T13:11:54.509Z,9.08
2019-05-13T13:14:34.717Z,1.07
2019-05-13T13:17:03.487Z,0.55
2019-05-13T13:19:34.338Z,2.17
2019-05-13T13:22:08.054Z,1.55
2019-05-13T13:24:51.368Z,2.02
2019-05-13T13:27:22.643Z,0.42
2019-05-13T13:29:48.818Z,4.90
2019-05-13T13:32:19.457Z,1.10
2019-05-13T13:34:54.713Z,2.87
2019-05-13T13:37:26.637Z,2.22
2019-05-13T13:40:05.915Z,1.50
2019-05-13T13:42:38.064Z,3.08
2019-05-13T13:45:10.258Z,0.70
2019-05-13T13:47:45.527Z,1.25
2019-05-13T13:50:13.776Z,2.62
2019-05-13T13:52:45.768Z,2.20
2019-05-13T13:55:16.643Z,0.93
2019-05-13T13:57:47.639Z,2.85
2019-05-13T14:00:37.699Z,2.45
2019-05-13T14:02:55.410Z,1.20
2019-05-13T14:05:28.914Z,2.08
2019-05-13T14:08:01.699Z,1.45
2019-05-13T14:10:33.716Z,2.77
2019-05-13T14:13:04.975Z,2.12
2019-05-13T14:15:35.358Z,1.80
2019-05-13T14:18:05.886Z,3.30
2019-05-13T14:20:36.017Z,3.33
2019-05-13T14:23:06.274Z,1.90
2019-05-13T14:25:37.964Z,0.35
2019-05-13T14:28:08.871Z,5.97
2019-05-13T14:30:41.997Z,5.05
2019-05-13T14:33:12.733Z,2.95
2019-05-13T14:35:43.711Z,2.70
2019-05-13T14:38:14.249Z,0.70
2019-05-13T14:40:45.135Z,3.37
2019-05-13T14:43:17.278Z,0.75
2019-05-13T14:45:47.786Z,2.90
2019-05-13T14:48:18.163Z,2.37
2019-05-13T14:50:48.484Z,0.98
2019-05-13T14:53:19.114Z,3.05
2019-05-13T14:55:51.800Z,1.27
2019-05-13T14:58:22.163Z,2.10
2019-05-13T15:01:10.807Z,1.57
2019-05-13T15:03:24.264Z,2.50
2019-05-13T15:05:54.751Z,2.98
2019-05-13T15:08:25.853Z,0.55
2019-05-13T15:10:56.311Z,4.20
2019-05-13T15:13:26.420Z,5.22
2019-05-13T15:15:56.654Z,8.48
2019-05-13T15:18:32.520Z,0.23
2019-05-13T15:21:01.952Z,4.42
2019-05-13T15:23:32.448Z,4.97
2019-05-13T15:26:02.869Z,2.00
2019-05-13T15:28:33.073Z,3.77
2019-05-13T15:31:03.311Z,5.87
2019-05-13T15:33:38.698Z,1.07
2019-05-13T15:36:11.925Z,1.37
2019-05-13T15:38:42.400Z,1.60
2019-05-13T15:41:17.001Z,0.55
2019-05-13T15:43:47.147Z,3.92
2019-05-13T15:46:17.544Z,1.35
2019-05-13T15:48:47.786Z,0.85
2019-05-13T15:51:18.123Z,2.92
2019-05-13T15:53:52.399Z,1.02
2019-05-13T15:56:24.355Z,2.15
2019-05-13T15:58:54.649Z,1.62
2019-05-13T16:01:24.818Z,1.12
2019-05-13T16:03:54.944Z,2.72
2019-05-13T16:06:25.091Z,0.45
2019-05-13T16:08:56.106Z,1.80
2019-05-13T16:11:26.685Z,5.87
2019-05-13T16:13:58.681Z,0.98
2019-05-13T16:16:32.266Z,0.62
2019-05-13T16:19:02.368Z,4.40
2019-05-13T16:21:32.747Z,3.08
2019-05-13T16:24:08.228Z,1.35
2019-05-13T16:26:42.938Z,4.47
2019-05-13T16:29:34.733Z,0.10
2019-05-13T16:32:11.813Z,0.20
2019-05-13T16:34:43.409Z,1.22
2019-05-13T16:37:14.671Z,2.90
2019-05-13T16:39:44.909Z,2.08
2019-05-13T16:42:22.467Z,1.25
2019-05-13T16:44:55.340Z,0.60
2019-05-13T16:47:25.720Z,1.40
2019-05-13T16:49:55.909Z,0.42
2019-05-13T16:52:26.860Z,4.08
2019-05-13T16:55:02.349Z,1.15
2019-05-13T16:57:32.819Z,1.60
2019-05-13T17:00:04.289Z,0.75
2019-05-13T17:02:34.560Z,1.65
2019-05-13T17:05:05.872Z,3.65
2019-05-13T17:07:36.081Z,0.15
2019-05-13T17:10:12.500Z,1.27
2019-05-13T17:12:47.263Z,0.37
2019-05-13T17:15:22.792Z,2.05
2019-05-13T17:17:53.026Z,1.50
2019-05-13T17:20:27.445Z,0.85
2019-05-13T17:22:58.666Z,4.05
2019-05-13T17:25:28.866Z,0.10
2019-05-13T17:28:03.056Z,3.12
2019-05-13T17:30:32.705Z,4.83
2019-05-13T17:33:02.950Z,1.90
2019-05-13T17:35:33.242Z,0.00
2019-05-13T17:38:04.602Z,0.45
2019-05-13T17:40:37.055Z,1.27
2019-05-13T17:43:08.388Z,0.37
2019-05-13T17:45:42.513Z,1.75
2019-05-13T17:48:25.852Z,0.65
2019-05-13T17:50:45.512Z,1.95
2019-05-13T17:53:15.922Z,1.57
2019-05-13T17:55:46.225Z,1.80
2019-05-13T17:58:16.545Z,2.85
2019-05-13T18:00:46.695Z,1.27
2019-05-13T18:03:17.860Z,0.10
2019-05-13T18:05:51.490Z,1.85
2019-05-13T18:08:21.848Z,0.47
2019-05-13T18:10:52.118Z,4.28
2019-05-13T18:13:26.001Z,1.65
2019-05-13T18:16:02.360Z,3.12
2019-05-13T18:18:43.118Z,1.30
2019-05-13T18:21:05.336Z,1.30
2019-05-13T18:23:35.750Z,0.50
2019-05-13T18:26:08.999Z,1.35
2019-05-13T18:28:44.688Z,2.75
2019-05-13T18:31:15.250Z,3.45
2019-05-13T18:33:45.623Z,0.90
2019-05-13T18:36:15.847Z,0.55
2019-05-13T18:38:46.746Z,1.10
2019-05-13T18:41:21.210Z,1.65
2019-05-13T18:43:56.540Z,4.28
2019-05-13T18:46:27.339Z,1.40
2019-05-13T18:49:02.243Z,1.67
2019-05-13T18:51:32.923Z,7.83
2019-05-13T18:54:03.219Z,0.57
2019-05-13T18:56:33.454Z,1.12
2019-05-13T18:59:04.695Z,3.83
2019-05-13T19:01:41.066Z,3.83
2019-05-13T19:04:12.149Z,1.80
2019-05-13T19:06:42.589Z,2.50
2019-05-13T19:09:14.763Z,0.23
2019-05-13T19:11:44.883Z,0.08
2019-05-13T19:14:15.043Z,1.32
2019-05-13T19:16:45.261Z,0.68
2019-05-13T19:19:18.141Z,2.83
2019-05-13T19:21:47.678Z,0.75
2019-05-13T19:24:22.546Z,1.37
2019-05-13T19:26:52.799Z,0.10
2019-05-13T19:29:26.090Z,4.87
2019-05-13T19:31:55.496Z,1.35
2019-05-13T19:34:26.783Z,2.75
2019-05-13T19:36:57.374Z,0.15
2019-05-13T19:39:31.589Z,5.40
2019-05-13T19:42:01.805Z,4.05
2019-05-13T19:44:33.272Z,0.98
2019-05-13T19:47:04.017Z,3.22
2019-05-13T19:49:37.162Z,0.85
2019-05-13T19:52:06.523Z,7.10
2019-05-13T19:54:37.152Z,4.45
2019-05-13T19:57:08.860Z,2.15
2019-05-13T19:59:39.034Z,4.67
2019-05-13T20:02:12.043Z,11.10
2019-05-13T20:04:41.542Z,4.53
2019-05-13T20:07:12.068Z,7.05
2019-05-13T20:09:42.772Z,0.45
2019-05-13T20:12:15.766Z,6.40
2019-05-13T20:14:44.982Z,6.30
2019-05-13T20:17:15.239Z,3.80
2019-05-13T20:19:50.235Z,6.00
2019-05-13T20:22:17.526Z,4.30
2019-05-13T20:24:47.874Z,3.17
2019-05-13T20:27:18.382Z,10.20
2019-05-13T20:29:51.054Z,6.15
2019-05-13T20:32:22.210Z,9.48
2019-05-13T20:34:53.919Z,4.80
2019-05-13T20:37:24.025Z,13.40
2019-05-13T20:39:54.369Z,6.65
2019-05-13T20:42:24.664Z,10.05
2019-05-13T20:44:54.858Z,16.93
2019-05-13T20:47:28.456Z,13.03
2019-05-13T20:50:02.343Z,5.87
2019-05-13T20:52:32.606Z,2.47
2019-05-13T20:55:02.791Z,5.25
2019-05-13T20:57:32.908Z,1.47
2019-05-13T21:00:04.628Z,3.17
2019-05-13T21:02:36.614Z,2.90
2019-05-13T21:05:06.768Z,5.78
2019-05-13T21:07:36.953Z,3.85
2019-05-13T21:10:08.290Z,14.15
2019-05-13T21:12:41.932Z,2.10
2019-05-13T21:15:13.108Z,1.87
2019-05-13T21:17:43.824Z,6.08
2019-05-13T21:20:19.472Z,4.28
2019-05-13T21:22:46.427Z,2.37
2019-05-13T21:25:16.703Z,5.30
2019-05-13T21:27:47.007Z,1.60
2019-05-13T21:30:17.166Z,2.15
2019-05-13T21:32:47.313Z,2.98
2019-05-13T21:35:17.937Z,3.40
2019-05-13T21:37:48.142Z,2.20
2019-05-13T21:40:19.079Z,3.72
2019-05-13T21:42:52.443Z,5.90
2019-05-13T21:45:21.595Z,1.05
2019-05-13T21:47:51.784Z,4.67
2019-05-13T21:50:33.202Z,5.08
2019-05-13T21:52:53.948Z,3.70
2019-05-13T21:55:24.189Z,4.95
2019-05-13T21:57:54.305Z,7.22
2019-05-13T22:00:32.076Z,5.97
2019-05-13T22:03:02.743Z,5.20
2019-05-13T22:05:33.115Z,5.28
2019-05-13T22:08:03.537Z,3.75
2019-05-13T22:10:33.700Z,3.95
2019-05-13T22:13:04.813Z,0.42
2019-05-13T22:15:35.195Z,1.55
2019-05-13T22:18:05.812Z,3.45
2019-05-13T22:20:47.400Z,6.37
2019-05-13T22:23:09.266Z,2.52
2019-05-13T22:25:43.375Z,8.60
2019-05-13T22:28:11.860Z,4.20
2019-05-13T22:30:42.226Z,2.22
2019-05-13T22:33:12.632Z,3.17
2019-05-13T22:35:42.771Z,2.90
2019-05-13T22:38:13.530Z,5.30
2019-05-13T22:40:43.695Z,0.85
2019-05-13T22:43:14.963Z,1.75
2019-05-13T22:45:45.135Z,4.85
2019-05-13T22:48:15.676Z,2.40
2019-05-13T22:50:45.844Z,2.77
2019-05-13T22:53:15.943Z,5.53
2019-05-13T22:55:46.044Z,7.72
2019-05-13T22:58:16.182Z,6.08
2019-05-13T23:00:46.293Z,3.50
2019-05-13T23:03:16.510Z,4.50
2019-05-13T23:05:46.673Z,7.20
2019-05-13T23:08:16.826Z,3.77
2019-05-13T23:10:47.047Z,5.22
2019-05-13T23:13:17.237Z,3.22
2019-05-13T23:15:47.339Z,7.22
2019-05-13T23:18:17.523Z,3.17
2019-05-13T23:20:47.639Z,4.72
2019-05-13T23:23:18.169Z,2.45
2019-05-13T23:25:48.365Z,1.92
2019-05-13T23:28:18.509Z,2.50
2019-05-13T23:30:51.004Z,4.25
2019-05-13T23:33:21.923Z,3.33
2019-05-13T23:35:52.225Z,4.37
2019-05-13T23:38:22.704Z,4.95
2019-05-13T23:40:53.001Z,5.55
2019-05-13T23:43:23.269Z,4.95
2019-05-13T23:45:53.387Z,4.50
2019-05-13T23:48:27.336Z,2.12
2019-05-13T23:51:01.371Z,5.12
2019-05-13T23:53:33.087Z,2.20
2019-05-13T23:56:03.257Z,4.33
2019-05-13T23:58:33.577Z,4.67
